hitpromo.net alexa rank chart, hitpromo.net alexa rank daily changes

hitpromo.net alexa rank chart, hitpromo.net alexa rank daily changes

hitpromo.net
Actual rank:
248 343

RANK HISTORY

Date Rank Diff
2016/12/10 248 343 +9 303
2016/12/09 239 040 +12 768
2016/12/08 226 272 -7 132
2016/12/07 233 404 -4 385
2016/12/06 237 789 +6 655
2016/12/05 231 134 +9 246
2016/12/04 221 888 +16 139
2016/12/02 205 749 +878
2016/12/01 204 871 -6 992
2016/11/30 211 863 +2 146
2016/11/29 209 717 +12 510
2016/11/28 197 207 +5 208
2016/11/27 191 999 +2 441
2016/11/26 189 558 +3 659
2016/11/25 185 899 -6 316
2016/11/24 192 215 -6 439
2016/11/23 198 654 +2 096
2016/11/19 196 558 +2 351
2016/11/18 194 207 +4 632
2016/11/17 189 575 -3 641
2016/11/16 193 216 +1 871
2016/11/15 191 345 +7 327
2016/11/14 184 018 +1 196
2016/11/13 182 822 +746
2016/11/12 182 076 +5 235
2016/11/11 176 841 -9 194
2016/11/10 186 035 -4 700
2016/11/09 190 735 -4 689
2016/11/08 195 424 +2 624
2016/11/07 192 800 +6 593
2016/11/06 186 207 +1 754
2016/11/05 184 453 -1 742
2016/11/04 186 195 -9 524
2016/11/03 195 719 -9 453
2016/11/02 205 172 +15
2016/11/01 205 157 +4 050
2016/10/31 201 107 +2 345
2016/10/30 198 762 +4 184
2016/10/29 194 578 -7 277
2016/10/28 201 855 -2 020
2016/10/27 203 875 +1 429
2016/10/26 202 446 -2 983
2016/10/25 205 429 +12 683
2016/10/24 192 746 +18 396
2016/10/23 174 350 +1 732
2016/10/22 172 618 +449
2016/10/21 172 169 +1 207
2016/10/20 170 962 -1 348
2016/10/19 172 310 -4 792
2016/10/18 177 102 -2 802
2016/10/17 179 904 +4 874
2016/10/16 175 030 +1 299
2016/10/15 173 731 +41 095
2016/10/14 132 636 +4 182
2016/10/13 128 454 -6 111
2016/10/12 134 565 -5 523
2016/10/11 140 088

WIDGET FOR YOUR SITE

DOMAINS WITH THE NEAREST RANK

Domain Rank
zabzaa.com 248 338
immobilmente.com 248 339
colorkinetics.com 248 340
com-news.site 248 341
alpha-wp.com 248 342
hitpromo.net 248 343
bigdaddy.com 248 344
sunyit.edu 248 345
mytransport.sg 248 346
dellscholars.org 248 347
pcm.gob.pe 248 348

DOMAINS WITH THE NEAREST RANK BY TLD .net

Domain Rank
scantool.net 248 281
sycle.net 248 293
moussi9a.net 248 314
horosoft.net 248 332
cosplay-doga.net 248 337
hitpromo.net 248 343
fruition.net 248 383
drspark.net 248 390
imgup.net 248 405
tamiltvp.net 248 440
taeyo.net 248 481